MOL Prestige — 9V3122 — position and weather

sailwx.info

Track history (hours):
 
Tides and Currents Weather Stations Pressure Air Temp Water Temp Dewpoint Dewpoint Depression Visibility Wind Speed Wind Dir Waves Ship Positions

MOL Prestige

Last reported at 2018-May-20 07:00 UTC. Time now 2018-May-22 10:14 UTC.
Position N 33°46' E 134°51'.

Length 292 m; draft 9.9 m.

Type: Ship (hazmat cat A). MMSI: 565558000.

Date/timePositionNaut miles runAvg speedWind from/ knotsBaromVisibWave heightAir tempDewpointWater temp
2018-May-20 07:00N 33°46' E 134°51'815.7
2018-May-20 06:30N 33°54' E 134°53'815.3
2018-May-20 06:00N 34°01' E 134°53'714.6
2018-May-20 05:30N 34°07' E 134°57'713.5
2018-May-20 05:00N 34°14' E 134°59'713.6
2018-May-20 04:31N 34°21' E 134°60'917.5
2018-May-20 04:00N 34°27' E 135°07'918.2
2018-May-20 03:30N 34°33' E 135°15'612.0
2018-May-20 03:00N 34°39' E 135°15'1 1.4
2018-May-20 02:30N 34°39' E 135°15'0 0.0
2018-May-20 02:00N 34°39' E 135°15'0 0.1
2018-May-20 01:30N 34°39' E 135°15'0 0.1
2018-May-20 01:00N 34°39' E 135°15'0 0.0
2018-May-20 00:30N 34°39' E 135°15'0 0.1
2018-May-20 00:00N 34°39' E 135°15'0 0.0
2018-May-19 23:30N 34°39' E 135°15'0 0.1
2018-May-19 23:00N 34°39' E 135°15'0 0.0
2018-May-19 22:30N 34°39' E 135°15'0 0.0
2018-May-19 22:00N 34°39' E 135°15'0 0.0
2018-May-19 21:30N 34°39' E 135°15'0 0.0
2018-May-19 21:00N 34°39' E 135°15'0 0.1
2018-May-19 20:30N 34°39' E 135°15'0 0.1
2018-May-19 20:00N 34°39' E 135°15'0 0.1
2018-May-19 19:30N 34°39' E 135°15'0 0.1
2018-May-19 19:00N 34°39' E 135°15'0 0.0
2018-May-19 18:30N 34°39' E 135°15'0 0.1
2018-May-19 18:00N 34°39' E 135°15'0 0.1
2018-May-19 17:30N 34°39' E 135°15'0 0.1
2018-May-19 17:00N 34°39' E 135°15'0 0.1
2018-May-19 16:30N 34°39' E 135°15'0 0.1
2018-May-19 16:00N 34°39' E 135°15'0 0.1
2018-May-19 15:30N 34°39' E 135°15'0 0.1
2018-May-19 15:00N 34°39' E 135°15'0 0.1
2018-May-19 14:30N 34°39' E 135°15'0 0.0
2018-May-19 14:00N 34°39' E 135°15'0 0.0
2018-May-19 13:30N 34°39' E 135°15'0 0.1
2018-May-19 13:00N 34°39' E 135°15'0 0.1
2018-May-19 12:30N 34°39' E 135°15'0 0.1
2018-May-19 11:54N 34°39' E 135°15'0 0.1
2018-May-19 11:31N 34°39' E 135°15'1 2.4
2018-May-19 11:00N 34°39' E 135°16'3 6.7
2018-May-19 10:30N 34°36' E 135°17'714.5
2018-May-19 10:00N 34°30' E 135°13'917.5
2018-May-19 09:30N 34°23' E 135°05'816.9
2018-May-19 09:00N 34°17' E 134°59'713.0
2018-May-19 08:30N 34°10' E 134°58'3 6.6
2018-May-19 08:01N 34°07' E 134°59'611.2
2018-May-19 07:30N 34°01' E 134°59'714.1
2018-May-19 07:00N 33°54' E 134°58'817.0
2018-May-19 06:30N 33°46' E 135°01'918.0
2018-May-19 06:00N 33°39' E 135°07'1119.5
2018-May-19 05:27N 33°31' E 135°16'212 7.5
2018-May-18 01:11N 34°49' E 139°15'317.4
2018-May-18 01:00N 34°52' E 139°17'916.4
2018-May-18 00:28N 34°56' E 139°26'816.4
2018-May-18 00:00N 35°00' E 139°34'917.3
2018-May-17 23:30N 35°05' E 139°43'612.6
2018-May-17 23:00N 35°11' E 139°46'510.7
2018-May-17 22:30N 35°16' E 139°46'612.3
2018-May-17 22:00N 35°22' E 139°42'612.2
2018-May-17 21:31N 35°27' E 139°47'713.3
2018-May-17 21:00N 35°32' E 139°51'510.3
2018-May-17 20:30N 35°36' E 139°46'1 1.6
2018-May-17 20:00N 35°37' E 139°46'0 0.0
2018-May-17 19:29N 35°37' E 139°46'0 0.0
2018-May-17 18:59N 35°37' E 139°46'0 0.0
2018-May-17 18:29N 35°37' E 139°46'0 0.0
2018-May-17 17:59N 35°37' E 139°46'0 0.0
2018-May-17 17:29N 35°37' E 139°46'0 0.0
2018-May-17 16:35N 35°37' E 139°46'0 0.0
2018-May-17 16:29N 35°37' E 139°46'0 0.0
2018-May-17 15:59N 35°37' E 139°46'0 0.0
2018-May-17 15:29N 35°37' E 139°46'0 0.0
2018-May-17 14:59N 35°37' E 139°46'0 0.1
2018-May-17 14:23N 35°37' E 139°46'0 0.0
2018-May-17 13:59N 35°37' E 139°46'0 0.1
2018-May-17 13:29N 35°37' E 139°46'0 0.1
2018-May-17 12:59N 35°37' E 139°46'0 0.1
2018-May-17 12:29N 35°37' E 139°46'0 0.0
2018-May-17 11:59N 35°37' E 139°46'0 0.0
2018-May-17 11:29N 35°37' E 139°46'0 0.0
2018-May-17 10:53N 35°37' E 139°46'0 0.0
2018-May-17 10:29N 35°37' E 139°46'0 0.1
2018-May-17 09:53N 35°37' E 139°46'0 0.1
2018-May-17 09:17N 35°37' E 139°46'0 0.2
2018-May-17 08:59N 35°37' E 139°46'0 0.1
2018-May-17 08:29N 35°37' E 139°46'0 0.0
2018-May-17 07:59N 35°37' E 139°46'0 0.0
2018-May-17 07:29N 35°37' E 139°46'0 0.0
2018-May-17 06:59N 35°37' E 139°46'0 0.0
2018-May-17 06:26N 35°37' E 139°46'0 0.0
2018-May-17 05:56N 35°37' E 139°46'0 0.0
2018-May-17 05:26N 35°37' E 139°46'0 0.0
2018-May-17 04:59N 35°37' E 139°46'0 0.0
2018-May-17 04:29N 35°37' E 139°46'0 0.0
2018-May-17 03:59N 35°37' E 139°46'0 0.0
2018-May-17 03:29N 35°37' E 139°46'0 0.0
2018-May-17 02:56N 35°37' E 139°46'0 0.0
2018-May-17 02:14N 35°37' E 139°46'0 0.0
2018-May-17 01:56N 35°37' E 139°46'0 0.0
2018-May-17 01:29N 35°37' E 139°46'0 0.0
2018-May-17 00:59N 35°37' E 139°46'0 0.0
2018-May-17 00:29N 35°37' E 139°46'0 0.0
2018-May-16 23:59N 35°37' E 139°46'0 0.0
2018-May-16 23:29N 35°37' E 139°46'0 0.0
2018-May-16 22:59N 35°37' E 139°46'0 0.0
2018-May-16 22:29N 35°37' E 139°46'0 0.6
2018-May-16 22:00N 35°37' E 139°46'4 8.1
2018-May-16 21:30N 35°34' E 139°50'5 9.8
2018-May-16 21:00N 35°29' E 139°52'713.5
2018-May-16 20:30N 35°24' E 139°46'612.3
2018-May-16 20:00N 35°18' E 139°44'611.7
2018-May-16 19:30N 35°13' E 139°47'4 7.6
2018-May-16 19:00N 35°09' E 139°47'2 3.9
2018-May-16 18:30N 35°07' E 139°47'3 5.0
2018-May-16 18:00N 35°05' E 139°46'713.6
2018-May-16 17:30N 34°59' E 139°42'613.1
2018-May-16 17:00N 34°53' E 139°44'713.1
2018-May-16 16:30N 34°50' E 139°51'714.8
2018-May-16 16:00N 34°50' E 140°00'3113.3
2018-May-16 13:42N 35°04' E 140°33'  
2018-May-12 00:00N 52°54' E 167°54'34614.4 160 / 201003.0 5.4 7.0 5.0
2018-May-11 00:00N 54°24' E 177°18'   340 / 251005.0 5.4 4.0 4.0
Track history (hours):
 
Tides and Currents Weather Stations Pressure Air Temp Water Temp Dewpoint Dewpoint Depression Visibility Wind Speed Wind Dir Waves Ship Positions

MOL Prestige

Last reported at 2018-May-20 07:00 UTC. Time now 2018-May-22 10:14 UTC.
Position N 33°46' E 134°51'.

Length 292 m; draft 9.9 m.

Type: Ship (hazmat cat A). MMSI: 565558000.

Date/timePositionNaut miles runAvg speedWind from/ knotsBaromVisibWave heightAir tempDewpointWater temp
2018-May-20 07:00N 33°46' E 134°51'815.7
2018-May-20 06:30N 33°54' E 134°53'815.3
2018-May-20 06:00N 34°01' E 134°53'714.6
2018-May-20 05:30N 34°07' E 134°57'713.5
2018-May-20 05:00N 34°14' E 134°59'713.6
2018-May-20 04:31N 34°21' E 134°60'917.5
2018-May-20 04:00N 34°27' E 135°07'918.2
2018-May-20 03:30N 34°33' E 135°15'612.0
2018-May-20 03:00N 34°39' E 135°15'1 1.4
2018-May-20 02:30N 34°39' E 135°15'0 0.0
2018-May-20 02:00N 34°39' E 135°15'0 0.1
2018-May-20 01:30N 34°39' E 135°15'0 0.1
2018-May-20 01:00N 34°39' E 135°15'0 0.0
2018-May-20 00:30N 34°39' E 135°15'0 0.1
2018-May-20 00:00N 34°39' E 135°15'0 0.0
2018-May-19 23:30N 34°39' E 135°15'0 0.1
2018-May-19 23:00N 34°39' E 135°15'0 0.0
2018-May-19 22:30N 34°39' E 135°15'0 0.0
2018-May-19 22:00N 34°39' E 135°15'0 0.0
2018-May-19 21:30N 34°39' E 135°15'0 0.0
2018-May-19 21:00N 34°39' E 135°15'0 0.1
2018-May-19 20:30N 34°39' E 135°15'0 0.1
2018-May-19 20:00N 34°39' E 135°15'0 0.1
2018-May-19 19:30N 34°39' E 135°15'0 0.1
2018-May-19 19:00N 34°39' E 135°15'0 0.0
2018-May-19 18:30N 34°39' E 135°15'0 0.1
2018-May-19 18:00N 34°39' E 135°15'0 0.1
2018-May-19 17:30N 34°39' E 135°15'0 0.1
2018-May-19 17:00N 34°39' E 135°15'0 0.1
2018-May-19 16:30N 34°39' E 135°15'0 0.1
2018-May-19 16:00N 34°39' E 135°15'0 0.1
2018-May-19 15:30N 34°39' E 135°15'0 0.1
2018-May-19 15:00N 34°39' E 135°15'0 0.1
2018-May-19 14:30N 34°39' E 135°15'0 0.0
2018-May-19 14:00N 34°39' E 135°15'0 0.0
2018-May-19 13:30N 34°39' E 135°15'0 0.1
2018-May-19 13:00N 34°39' E 135°15'0 0.1
2018-May-19 12:30N 34°39' E 135°15'0 0.1
2018-May-19 11:54N 34°39' E 135°15'0 0.1
2018-May-19 11:31N 34°39' E 135°15'1 2.4
2018-May-19 11:00N 34°39' E 135°16'3 6.7
2018-May-19 10:30N 34°36' E 135°17'714.5
2018-May-19 10:00N 34°30' E 135°13'917.5
2018-May-19 09:30N 34°23' E 135°05'816.9
2018-May-19 09:00N 34°17' E 134°59'713.0
2018-May-19 08:30N 34°10' E 134°58'3 6.6
2018-May-19 08:01N 34°07' E 134°59'611.2
2018-May-19 07:30N 34°01' E 134°59'714.1
2018-May-19 07:00N 33°54' E 134°58'817.0
2018-May-19 06:30N 33°46' E 135°01'918.0
2018-May-19 06:00N 33°39' E 135°07'1119.5
2018-May-19 05:27N 33°31' E 135°16'212 7.5
2018-May-18 01:11N 34°49' E 139°15'317.4
2018-May-18 01:00N 34°52' E 139°17'916.4
2018-May-18 00:28N 34°56' E 139°26'816.4
2018-May-18 00:00N 35°00' E 139°34'917.3
2018-May-17 23:30N 35°05' E 139°43'612.6
2018-May-17 23:00N 35°11' E 139°46'510.7
2018-May-17 22:30N 35°16' E 139°46'612.3
2018-May-17 22:00N 35°22' E 139°42'612.2
2018-May-17 21:31N 35°27' E 139°47'713.3
2018-May-17 21:00N 35°32' E 139°51'510.3
2018-May-17 20:30N 35°36' E 139°46'1 1.6
2018-May-17 20:00N 35°37' E 139°46'0 0.0
2018-May-17 19:29N 35°37' E 139°46'0 0.0
2018-May-17 18:59N 35°37' E 139°46'0 0.0
2018-May-17 18:29N 35°37' E 139°46'0 0.0
2018-May-17 17:59N 35°37' E 139°46'0 0.0
2018-May-17 17:29N 35°37' E 139°46'0 0.0
2018-May-17 16:35N 35°37' E 139°46'0 0.0
2018-May-17 16:29N 35°37' E 139°46'0 0.0
2018-May-17 15:59N 35°37' E 139°46'0 0.0
2018-May-17 15:29N 35°37' E 139°46'0 0.0
2018-May-17 14:59N 35°37' E 139°46'0 0.1
2018-May-17 14:23N 35°37' E 139°46'0 0.0
2018-May-17 13:59N 35°37' E 139°46'0 0.1
2018-May-17 13:29N 35°37' E 139°46'0 0.1
2018-May-17 12:59N 35°37' E 139°46'0 0.1
2018-May-17 12:29N 35°37' E 139°46'0 0.0
2018-May-17 11:59N 35°37' E 139°46'0 0.0
2018-May-17 11:29N 35°37' E 139°46'0 0.0
2018-May-17 10:53N 35°37' E 139°46'0 0.0
2018-May-17 10:29N 35°37' E 139°46'0 0.1
2018-May-17 09:53N 35°37' E 139°46'0 0.1
2018-May-17 09:17N 35°37' E 139°46'0 0.2
2018-May-17 08:59N 35°37' E 139°46'0 0.1
2018-May-17 08:29N 35°37' E 139°46'0 0.0
2018-May-17 07:59N 35°37' E 139°46'0 0.0
2018-May-17 07:29N 35°37' E 139°46'0 0.0
2018-May-17 06:59N 35°37' E 139°46'0 0.0
2018-May-17 06:26N 35°37' E 139°46'0 0.0
2018-May-17 05:56N 35°37' E 139°46'0 0.0
2018-May-17 05:26N 35°37' E 139°46'0 0.0
2018-May-17 04:59N 35°37' E 139°46'0 0.0
2018-May-17 04:29N 35°37' E 139°46'0 0.0
2018-May-17 03:59N 35°37' E 139°46'0 0.0
2018-May-17 03:29N 35°37' E 139°46'0 0.0
2018-May-17 02:56N 35°37' E 139°46'0 0.0
2018-May-17 02:14N 35°37' E 139°46'0 0.0
2018-May-17 01:56N 35°37' E 139°46'0 0.0
2018-May-17 01:29N 35°37' E 139°46'0 0.0
2018-May-17 00:59N 35°37' E 139°46'0 0.0
2018-May-17 00:29N 35°37' E 139°46'0 0.0
2018-May-16 23:59N 35°37' E 139°46'0 0.0
2018-May-16 23:29N 35°37' E 139°46'0 0.0
2018-May-16 22:59N 35°37' E 139°46'0 0.0
2018-May-16 22:29N 35°37' E 139°46'0 0.6
2018-May-16 22:00N 35°37' E 139°46'4 8.1
2018-May-16 21:30N 35°34' E 139°50'5 9.8
2018-May-16 21:00N 35°29' E 139°52'713.5
2018-May-16 20:30N 35°24' E 139°46'612.3
2018-May-16 20:00N 35°18' E 139°44'611.7
2018-May-16 19:30N 35°13' E 139°47'4 7.6
2018-May-16 19:00N 35°09' E 139°47'2 3.9
2018-May-16 18:30N 35°07' E 139°47'3 5.0
2018-May-16 18:00N 35°05' E 139°46'713.6
2018-May-16 17:30N 34°59' E 139°42'613.1
2018-May-16 17:00N 34°53' E 139°44'713.1
2018-May-16 16:30N 34°50' E 139°51'714.8
2018-May-16 16:00N 34°50' E 140°00'3113.3
2018-May-16 13:42N 35°04' E 140°33'  
2018-May-12 00:00N 52°54' E 167°54'34614.4 160 / 201003.0 5.4 7.0 5.0
2018-May-11 00:00N 54°24' E 177°18'   340 / 251005.0 5.4 4.0 4.0

Dump ship's entire track history